Fecha, hora, temperatura, viento dirección y velocidad, humedad y presión.

  • 12-12-2018 16:00:00 | 17.60°C | Noroeste |9.00 km/h | 47.00% | 1016.90 hPa
  • 12-12-2018 15:00:00 | 17.90°C | Sudoeste |10.00 km/h | 50.00% | 1017.00 hPa
  • 12-12-2018 13:00:00 | 0.00°C | 0 |0.00 km/h | 0.00% | 0.00 hPa
  • 12-12-2018 12:00:00 | 17.20°C | Oeste |4.00 km/h | 63.00% | 1019.00 hPa
  • 12-12-2018 12:00:00 | 17.20°C | Oeste |4.00 km/h | 63.00% | 1019.00 hPa
  • 12-12-2018 11:00:00 | 14.50°C | Calma |0.00 km/h | 80.00% | 1019.90 hPa
  • 12-12-2018 10:00:00 | 10.30°C | Nordeste |3.00 km/h | 94.00% | 1019.70 hPa
  • 12-12-2018 09:00:00 | 7.00°C | Norte |3.00 km/h | 98.00% | 1019.50 hPa
  • 12-12-2018 08:00:00 | 6.60°C | Norte |5.00 km/h | 99.00% | 1019.10 hPa
  • 12-12-2018 06:00:00 | 7.40°C | Norte |5.00 km/h | 98.00% | 1018.50 hPa
  • 12-12-2018 05:00:00 | 7.80°C | Noroeste |4.00 km/h | 99.00% | 1018.80 hPa
  • 12-12-2018 04:00:00 | 7.30°C | Norte |5.00 km/h | 99.00% | 1019.00 hPa
  • 12-12-2018 03:00:00 | 7.20°C | Nordeste |4.00 km/h | 98.00% | 1019.20 hPa
  • 12-12-2018 02:00:00 | 7.30°C | Norte |2.00 km/h | 98.00% | 1019.20 hPa
  • 12-12-2018 01:00:00 | 8.30°C | Norte |5.00 km/h | 98.00% | 1019.40 hPa
  • 12-12-2018 00:00:00 | 8.40°C | Calma |0.00 km/h | 97.00% | 1019.80 hPa
  • 11-12-2018 23:00:00 | 9.20°C | Calma |0.00 km/h | 97.00% | 1020.00 hPa
  • 11-12-2018 22:00:00 | 9.10°C | Nordeste |5.00 km/h | 95.00% | 1019.80 hPa
  • 11-12-2018 21:00:00 | 10.40°C | Norte |6.00 km/h | 92.00% | 1020.10 hPa
  • 11-12-2018 20:00:00 | 11.30°C | Norte |10.00 km/h | 90.00% | 1020.00 hPa
  • 11-12-2018 19:00:00 | 12.70°C | Oeste |7.00 km/h | 89.00% | 1019.80 hPa
  • 11-12-2018 18:00:00 | 13.30°C | Oeste |11.00 km/h | 85.00% | 1020.20 hPa
  • 11-12-2018 17:00:00 | 15.10°C | Sudoeste |13.00 km/h | 80.00% | 1020.00 hPa
  • 11-12-2018 16:00:00 | 16.30°C | Sudoeste |18.00 km/h | 76.00% | 1020.10 hPa
    • diseño web asturias Información sobre el estado de las mareas, altura de la marejada, temperatura del agua y otros datos de Gijón en Asturias.

      Surf Gijón